createdAt,value
2022-12-25T00:01:11.275Z,28.47
2022-12-25T00:02:34.947Z,30.37
2022-12-25T00:03:58.829Z,34.30
2022-12-25T00:05:23.364Z,24.43
2022-12-25T00:06:47.203Z,29.23
2022-12-25T00:08:10.954Z,26.20
2022-12-25T00:09:35.147Z,30.33
2022-12-25T00:11:03.107Z,30.70
2022-12-25T00:12:26.246Z,28.20
2022-12-25T00:13:49.337Z,24.93
2022-12-25T00:15:12.796Z,30.47
2022-12-25T00:16:36.185Z,29.23
2022-12-25T00:17:59.513Z,34.10
2022-12-25T00:19:23.376Z,32.30
2022-12-25T00:20:46.827Z,30.40
2022-12-25T00:22:10.134Z,31.83
2022-12-25T00:23:34.629Z,33.93
2022-12-25T00:24:56.757Z,32.20
2022-12-25T00:26:18.914Z,36.23
2022-12-25T00:27:41.199Z,30.40
2022-12-25T00:29:03.591Z,27.93
2022-12-25T00:30:25.707Z,39.93
2022-12-25T00:31:47.875Z,39.40
2022-12-25T00:33:09.958Z,29.63
2022-12-25T00:34:32.375Z,49.30
2022-12-25T00:35:59.197Z,35.23
2022-12-25T00:37:21.385Z,40.67
2022-12-25T00:38:44.063Z,36.87
2022-12-25T00:40:06.943Z,38.60
2022-12-25T00:41:47.523Z,33.43
2022-12-25T00:43:10.206Z,31.70
2022-12-25T00:44:32.389Z,36.00
2022-12-25T00:46:00.424Z,39.30
2022-12-25T00:47:22.806Z,44.97
2022-12-25T00:48:47.517Z,45.13
2022-12-25T00:50:10.033Z,37.57
2022-12-25T00:51:32.935Z,35.27
2022-12-25T00:52:55.082Z,35.23
2022-12-25T00:54:17.779Z,32.00
2022-12-25T00:55:39.861Z,34.13
2022-12-25T00:57:02.340Z,31.03
2022-12-25T00:58:25.587Z,34.60
2022-12-25T00:59:47.612Z,39.70
2022-12-25T01:01:11.274Z,28.33
2022-12-25T01:02:33.422Z,37.50
2022-12-25T01:03:55.893Z,36.07
2022-12-25T01:05:17.934Z,36.57
2022-12-25T01:06:40.744Z,38.50
2022-12-25T01:08:02.833Z,30.73
2022-12-25T01:09:43.718Z,32.80
2022-12-25T01:11:08.106Z,38.83
2022-12-25T01:12:32.280Z,38.73
2022-12-25T01:13:54.444Z,34.83
2022-12-25T01:15:16.718Z,32.30
2022-12-25T01:16:38.898Z,32.17
2022-12-25T01:18:05.778Z,35.30
2022-12-25T01:19:29.883Z,33.83
2022-12-25T01:20:51.949Z,35.10
2022-12-25T01:22:16.248Z,32.33
2022-12-25T01:23:38.639Z,32.87
2022-12-25T01:25:00.651Z,35.43
2022-12-25T01:26:24.765Z,32.57
2022-12-25T01:27:46.830Z,31.93
2022-12-25T01:29:08.852Z,38.17
2022-12-25T01:30:31.725Z,39.70
2022-12-25T01:31:53.855Z,30.27
2022-12-25T01:33:15.926Z,32.20
2022-12-25T01:34:38.123Z,39.13
2022-12-25T01:36:00.195Z,33.07
2022-12-25T01:37:23.369Z,36.40
2022-12-25T01:38:46.314Z,29.37
2022-12-25T01:40:08.918Z,33.37
2022-12-25T01:41:31.009Z,29.83
2022-12-25T01:42:53.094Z,30.27
2022-12-25T01:44:15.070Z,46.83
2022-12-25T01:45:42.113Z,38.00
2022-12-25T01:47:05.824Z,31.77
2022-12-25T01:48:34.119Z,36.80
2022-12-25T01:49:56.164Z,30.23
2022-12-25T01:51:33.357Z,29.33
2022-12-25T01:52:56.324Z,36.57
2022-12-25T01:54:23.694Z,36.93
2022-12-25T01:55:49.038Z,25.80
2022-12-25T01:57:22.264Z,24.20
2022-12-25T01:58:44.392Z,29.97
2022-12-25T02:00:07.994Z,26.03
2022-12-25T02:01:30.275Z,27.37
2022-12-25T02:02:52.610Z,39.87
2022-12-25T02:04:39.394Z,29.97
2022-12-25T02:06:03.568Z,31.07
2022-12-25T02:07:27.569Z,34.07
2022-12-25T02:08:49.987Z,31.07
2022-12-25T02:10:12.878Z,23.90
2022-12-25T02:11:58.458Z,33.03
2022-12-25T02:13:20.977Z,24.73
2022-12-25T02:14:43.349Z,29.80
2022-12-25T02:16:17.174Z,32.30
2022-12-25T02:17:50.706Z,29.07
2022-12-25T02:19:50.080Z,28.87
2022-12-25T02:21:29.799Z,28.47
2022-12-25T02:23:01.049Z,26.17
2022-12-25T02:24:45.840Z,27.60
2022-12-25T02:26:40.749Z,32.00
2022-12-25T02:28:23.835Z,32.83
2022-12-25T02:29:57.682Z,26.87
2022-12-25T02:31:30.737Z,26.43
2022-12-25T02:32:52.821Z,29.93
2022-12-25T02:34:20.735Z,39.80
2022-12-25T02:35:47.479Z,30.63
2022-12-25T02:37:27.672Z,29.80
2022-12-25T02:39:14.038Z,30.80
2022-12-25T02:40:44.113Z,28.90
2022-12-25T02:42:11.321Z,28.63
2022-12-25T02:43:57.051Z,36.97
2022-12-25T02:45:43.877Z,32.93
2022-12-25T02:47:26.584Z,27.83
2022-12-25T02:49:18.495Z,27.80
2022-12-25T02:50:59.463Z,26.17
2022-12-25T02:52:41.673Z,30.77
2022-12-25T02:54:28.429Z,27.47
2022-12-25T02:56:10.611Z,32.87
2022-12-25T02:57:57.061Z,29.57
2022-12-25T02:59:39.018Z,26.97
2022-12-25T03:01:36.070Z,29.77
2022-12-25T03:03:18.154Z,34.53
2022-12-25T03:05:00.282Z,31.40
2022-12-25T03:06:43.130Z,32.47
2022-12-25T03:08:08.702Z,28.07
2022-12-25T03:10:05.919Z,24.70
2022-12-25T03:11:31.601Z,29.60
2022-12-25T03:13:07.778Z,33.10
2022-12-25T03:14:48.265Z,25.53
2022-12-25T03:16:28.860Z,24.47
2022-12-25T03:17:51.519Z,26.33
2022-12-25T03:19:32.061Z,27.53
2022-12-25T03:21:13.000Z,32.80
2022-12-25T03:22:54.376Z,31.77
2022-12-25T03:24:34.921Z,30.10
2022-12-25T03:26:15.611Z,25.17
2022-12-25T03:27:39.090Z,30.83
2022-12-25T03:29:01.194Z,28.07
2022-12-25T03:30:55.889Z,27.63
2022-12-25T03:32:26.925Z,30.57
2022-12-25T03:34:52.022Z,33.60
2022-12-25T03:36:29.867Z,29.97
2022-12-25T03:38:19.800Z,28.77
2022-12-25T03:40:22.055Z,23.40
2022-12-25T03:42:10.606Z,28.87
2022-12-25T03:44:18.278Z,30.90
2022-12-25T03:46:06.740Z,27.50
2022-12-25T03:47:37.513Z,26.27
2022-12-25T03:49:27.492Z,33.50
2022-12-25T03:51:15.233Z,25.20
2022-12-25T03:52:58.240Z,25.30
2022-12-25T03:54:41.576Z,30.87
2022-12-25T03:56:24.079Z,34.70
2022-12-25T03:58:04.915Z,24.03
2022-12-25T03:59:45.771Z,35.17
2022-12-25T04:01:26.763Z,21.87
2022-12-25T04:03:07.357Z,20.60
2022-12-25T04:04:48.082Z,27.57
2022-12-25T04:06:28.540Z,29.33
2022-12-25T04:08:09.221Z,27.80
2022-12-25T04:09:49.650Z,30.57
2022-12-25T04:11:30.142Z,23.17
2022-12-25T04:13:10.834Z,29.90
2022-12-25T04:14:51.365Z,21.50
2022-12-25T04:16:32.113Z,25.20
2022-12-25T04:18:12.951Z,21.60
2022-12-25T04:19:53.650Z,27.00
2022-12-25T04:21:34.395Z,23.23
2022-12-25T04:23:15.055Z,22.67
2022-12-25T04:24:55.668Z,30.83
2022-12-25T04:26:36.378Z,20.90
2022-12-25T04:28:21.500Z,21.80
2022-12-25T04:30:02.224Z,18.50
2022-12-25T04:31:42.980Z,16.97
2022-12-25T04:33:23.718Z,20.90
2022-12-25T04:35:04.257Z,26.83
2022-12-25T04:36:26.289Z,20.50
2022-12-25T04:37:48.342Z,18.40
2022-12-25T04:39:11.050Z,20.77
2022-12-25T04:40:33.114Z,21.27
2022-12-25T04:41:55.208Z,20.00
2022-12-25T04:43:17.243Z,15.10
2022-12-25T04:44:39.288Z,15.70
2022-12-25T04:46:02.690Z,17.30
2022-12-25T04:47:24.785Z,17.50
2022-12-25T04:48:46.825Z,18.17
2022-12-25T04:50:09.268Z,22.30
2022-12-25T04:51:31.371Z,19.17
2022-12-25T04:52:53.398Z,22.47
2022-12-25T04:54:15.674Z,18.40
2022-12-25T04:55:37.729Z,14.70
2022-12-25T04:56:59.796Z,14.37
2022-12-25T04:58:21.876Z,16.00
2022-12-25T04:59:43.898Z,15.07
2022-12-25T05:01:06.336Z,18.30
2022-12-25T05:02:28.499Z,16.07
2022-12-25T05:03:50.802Z,18.37
2022-12-25T05:05:12.923Z,19.13
2022-12-25T05:06:35.040Z,19.17
2022-12-25T05:07:57.959Z,20.23
2022-12-25T05:09:20.039Z,26.23
2022-12-25T05:10:42.136Z,31.70
2022-12-25T05:12:04.483Z,23.20
2022-12-25T05:13:26.579Z,18.70
2022-12-25T05:14:48.630Z,22.20
2022-12-25T05:16:15.212Z,20.87
2022-12-25T05:17:37.599Z,22.37
2022-12-25T05:18:59.641Z,28.33
2022-12-25T05:20:21.704Z,33.47
2022-12-25T05:21:43.740Z,20.70
2022-12-25T05:23:05.804Z,14.40
2022-12-25T05:24:28.474Z,21.20
2022-12-25T05:25:50.639Z,11.13
2022-12-25T05:27:12.720Z,25.13
2022-12-25T05:28:35.564Z,17.63
2022-12-25T05:29:57.654Z,12.53
2022-12-25T05:31:20.301Z,12.73
2022-12-25T05:32:42.417Z,14.17
2022-12-25T05:34:04.423Z,25.97
2022-12-25T05:35:26.463Z,15.07
2022-12-25T05:36:48.603Z,16.73
2022-12-25T05:38:10.681Z,17.17
2022-12-25T05:39:32.768Z,17.67
2022-12-25T05:40:54.843Z,17.23
2022-12-25T05:42:16.946Z,11.63
2022-12-25T05:43:39.018Z,13.37
2022-12-25T05:45:01.056Z,18.70
2022-12-25T05:46:23.629Z,23.13
2022-12-25T05:47:45.716Z,28.30
2022-12-25T05:49:08.040Z,24.33
2022-12-25T05:50:30.191Z,29.23
2022-12-25T05:51:52.570Z,37.40
2022-12-25T05:53:16.375Z,35.73
2022-12-25T05:54:38.559Z,38.60
2022-12-25T05:56:03.189Z,25.20
2022-12-25T05:57:25.690Z,23.97
2022-12-25T05:58:47.894Z,26.43
2022-12-25T06:00:10.761Z,28.60
2022-12-25T06:01:33.048Z,21.30
2022-12-25T06:02:55.338Z,22.63
2022-12-25T06:04:17.599Z,28.27
2022-12-25T06:05:39.841Z,25.30
2022-12-25T06:07:01.948Z,17.30
2022-12-25T06:08:24.045Z,17.07
2022-12-25T06:09:46.076Z,19.60
2022-12-25T06:11:09.286Z,14.53
2022-12-25T06:12:31.336Z,16.00
2022-12-25T06:13:53.607Z,15.23
2022-12-25T06:15:15.686Z,15.33
2022-12-25T06:16:38.592Z,17.10
2022-12-25T06:18:01.500Z,16.13
2022-12-25T06:19:23.939Z,14.20
2022-12-25T06:20:46.102Z,14.07
2022-12-25T06:22:08.196Z,11.27
2022-12-25T06:23:30.420Z,19.33
2022-12-25T06:24:52.499Z,16.10
2022-12-25T06:26:17.613Z,22.97
2022-12-25T06:27:39.671Z,22.53
2022-12-25T06:29:01.799Z,18.90
2022-12-25T06:30:23.914Z,15.67
2022-12-25T06:31:46.162Z,17.47
2022-12-25T06:33:08.239Z,14.90
2022-12-25T06:34:30.495Z,15.67
2022-12-25T06:35:52.554Z,19.13
2022-12-25T06:37:15.358Z,15.87
2022-12-25T06:38:37.568Z,12.30
2022-12-25T06:39:59.629Z,16.23
2022-12-25T06:41:24.483Z,11.50
2022-12-25T06:42:46.532Z,12.20
2022-12-25T06:44:08.979Z,12.27
2022-12-25T06:45:31.192Z,14.83
2022-12-25T06:46:54.453Z,14.63
2022-12-25T06:48:16.563Z,13.93
2022-12-25T06:49:38.634Z,11.73
2022-12-25T06:51:00.806Z,12.90
2022-12-25T06:52:22.938Z,14.07
2022-12-25T06:53:46.050Z,12.23
2022-12-25T06:55:08.448Z,12.40
2022-12-25T06:56:31.129Z,12.53
2022-12-25T06:57:53.216Z,9.83
2022-12-25T06:59:15.465Z,14.30
2022-12-25T07:00:37.551Z,8.10
2022-12-25T07:01:59.871Z,6.90
2022-12-25T07:03:22.829Z,11.33
2022-12-25T07:04:45.880Z,11.33
2022-12-25T07:06:08.113Z,12.57
2022-12-25T07:07:30.219Z,7.40
2022-12-25T07:08:52.821Z,14.13
2022-12-25T07:10:14.914Z,7.73
2022-12-25T07:11:37.016Z,11.07
2022-12-25T07:12:59.133Z,5.70
2022-12-25T07:14:24.391Z,7.20
2022-12-25T07:15:46.784Z,5.57
2022-12-25T07:17:08.875Z,8.23
2022-12-25T07:18:32.145Z,6.00
2022-12-25T07:19:54.320Z,9.03
2022-12-25T07:21:19.113Z,5.23
2022-12-25T07:22:41.168Z,5.80
2022-12-25T07:24:03.478Z,6.63
2022-12-25T07:25:25.521Z,6.50
2022-12-25T07:26:48.206Z,6.47
2022-12-25T07:28:10.352Z,11.70
2022-12-25T07:29:32.476Z,6.13
2022-12-25T07:30:54.759Z,9.20
2022-12-25T07:32:16.904Z,8.73
2022-12-25T07:33:39.037Z,5.13
2022-12-25T07:35:01.095Z,6.03
2022-12-25T07:36:23.191Z,14.03
2022-12-25T07:37:45.368Z,8.83
2022-12-25T07:39:07.389Z,11.73
2022-12-25T07:40:29.444Z,17.60
2022-12-25T07:41:51.653Z,13.03
2022-12-25T07:43:13.816Z,19.37
2022-12-25T07:44:35.839Z,7.43
2022-12-25T07:45:59.309Z,9.07
2022-12-25T07:47:21.435Z,5.83
2022-12-25T07:48:43.464Z,8.60
2022-12-25T07:50:06.336Z,7.63
2022-12-25T07:51:30.141Z,10.60
2022-12-25T07:52:52.172Z,12.23
2022-12-25T07:54:14.260Z,10.93
2022-12-25T07:55:36.377Z,5.17
2022-12-25T07:56:58.617Z,13.47
2022-12-25T07:58:23.464Z,8.83
2022-12-25T07:59:45.810Z,25.37
2022-12-25T08:01:14.247Z,19.70
2022-12-25T08:02:36.581Z,31.77
2022-12-25T08:04:02.711Z,13.70
2022-12-25T08:05:24.806Z,10.70
2022-12-25T08:06:46.862Z,8.10
2022-12-25T08:08:08.965Z,4.90
2022-12-25T08:09:30.993Z,6.60
2022-12-25T08:10:53.018Z,7.43
2022-12-25T08:12:15.376Z,7.93
2022-12-25T08:13:38.118Z,9.90
2022-12-25T08:15:00.149Z,8.20
2022-12-25T08:16:22.845Z,21.43
2022-12-25T08:17:45.461Z,14.43
2022-12-25T08:19:09.357Z,15.43
2022-12-25T08:20:31.758Z,3.67
2022-12-25T08:21:54.255Z,9.30
2022-12-25T08:23:16.585Z,8.57
2022-12-25T08:24:39.007Z,10.53
2022-12-25T08:26:05.330Z,6.07
2022-12-25T08:27:28.310Z,4.90
2022-12-25T08:28:51.225Z,8.87
2022-12-25T08:30:13.917Z,6.87
2022-12-25T08:31:42.421Z,10.10
2022-12-25T08:33:08.370Z,4.50
2022-12-25T08:34:30.777Z,7.50
2022-12-25T08:35:53.280Z,4.93
2022-12-25T08:37:15.736Z,4.10
2022-12-25T08:38:38.893Z,8.30
2022-12-25T08:40:01.224Z,10.23
2022-12-25T08:41:23.711Z,5.13
2022-12-25T08:42:46.217Z,12.30
2022-12-25T08:44:08.857Z,4.80
2022-12-25T08:45:35.202Z,8.43
2022-12-25T08:46:57.941Z,11.13
2022-12-25T08:48:20.029Z,5.80
2022-12-25T08:49:42.109Z,12.73
2022-12-25T08:51:05.174Z,12.10
2022-12-25T08:52:28.638Z,9.57
2022-12-25T08:53:53.448Z,8.13
2022-12-25T08:55:16.199Z,10.00
2022-12-25T08:56:38.780Z,6.30
2022-12-25T08:58:00.907Z,12.93
2022-12-25T08:59:22.971Z,10.57
2022-12-25T09:00:45.111Z,8.03
2022-12-25T09:02:07.325Z,6.80
2022-12-25T09:03:34.414Z,13.53
2022-12-25T09:04:58.603Z,27.73
2022-12-25T09:06:22.517Z,9.20
2022-12-25T09:07:46.387Z,11.03
2022-12-25T09:09:11.338Z,7.80
2022-12-25T09:10:40.189Z,6.23
2022-12-25T09:12:04.818Z,14.43
2022-12-25T09:13:29.201Z,13.27
2022-12-25T09:14:52.936Z,9.60
2022-12-25T09:16:19.953Z,7.87
2022-12-25T09:17:43.816Z,9.97
2022-12-25T09:19:07.667Z,10.90
2022-12-25T09:20:31.320Z,8.57
2022-12-25T09:21:55.227Z,6.67
2022-12-25T09:23:19.242Z,7.87
2022-12-25T09:24:45.185Z,10.03
2022-12-25T09:26:13.219Z,9.40
2022-12-25T09:27:39.039Z,17.13
2022-12-25T09:29:04.200Z,12.00
2022-12-25T09:30:29.589Z,14.00
2022-12-25T09:31:55.078Z,13.23
2022-12-25T09:33:21.514Z,10.90
2022-12-25T09:34:47.006Z,7.13
2022-12-25T09:36:13.637Z,8.73
2022-12-25T09:37:39.129Z,16.80
2022-12-25T09:39:04.425Z,8.43
2022-12-25T09:40:33.042Z,8.40
2022-12-25T09:42:01.991Z,5.00
2022-12-25T09:43:27.056Z,23.20
2022-12-25T09:45:00.679Z,7.10
2022-12-25T09:46:33.081Z,7.70
2022-12-25T09:47:58.833Z,13.03
2022-12-25T09:49:36.321Z,14.50
2022-12-25T09:51:09.983Z,10.20
2022-12-25T09:52:40.084Z,9.50
2022-12-25T09:54:18.249Z,12.00
2022-12-25T09:55:48.720Z,12.00
2022-12-25T09:57:12.543Z,6.43
2022-12-25T09:58:34.855Z,9.07
2022-12-25T09:59:57.208Z,8.80
2022-12-25T10:01:44.469Z,9.97
2022-12-25T10:03:28.989Z,12.13
2022-12-25T10:05:01.680Z,11.43
2022-12-25T10:06:50.588Z,9.50
2022-12-25T10:08:23.068Z,8.23
2022-12-25T10:10:21.481Z,11.23
2022-12-25T10:12:02.018Z,10.10
2022-12-25T10:13:55.278Z,10.67
2022-12-25T10:15:36.689Z,9.17
2022-12-25T10:17:19.151Z,11.33
2022-12-25T10:18:41.150Z,7.53
2022-12-25T10:20:21.999Z,7.30
2022-12-25T10:21:44.382Z,10.93
2022-12-25T10:23:15.583Z,13.00
2022-12-25T10:24:45.647Z,11.97
2022-12-25T10:26:25.153Z,21.70
2022-12-25T10:27:56.829Z,9.20
2022-12-25T10:29:19.963Z,15.83
2022-12-25T10:30:44.922Z,8.90
2022-12-25T10:32:11.646Z,11.50
2022-12-25T10:33:35.780Z,10.10
2022-12-25T10:34:59.989Z,11.13
2022-12-25T10:36:29.667Z,9.63
2022-12-25T10:38:07.896Z,10.57
2022-12-25T10:39:29.918Z,11.00
2022-12-25T10:41:12.978Z,8.70
2022-12-25T10:42:42.423Z,10.53
2022-12-25T10:44:14.578Z,11.40
2022-12-25T10:45:44.676Z,8.30
2022-12-25T10:47:06.769Z,14.40
2022-12-25T10:48:32.424Z,11.67
2022-12-25T10:49:54.785Z,9.77
2022-12-25T10:51:36.437Z,17.53
2022-12-25T10:53:05.248Z,16.30
2022-12-25T10:54:35.044Z,10.57
2022-12-25T10:56:03.144Z,12.73
2022-12-25T10:57:26.499Z,17.17
2022-12-25T10:58:48.620Z,10.43
2022-12-25T11:00:21.717Z,14.97
2022-12-25T11:01:43.864Z,13.30
2022-12-25T11:03:06.224Z,12.97
2022-12-25T11:04:28.779Z,14.93
2022-12-25T11:05:54.581Z,13.13
2022-12-25T11:07:19.606Z,14.13
2022-12-25T11:08:41.771Z,12.40
2022-12-25T11:10:32.906Z,10.13
2022-12-25T11:11:55.023Z,11.70
2022-12-25T11:13:24.440Z,14.90
2022-12-25T11:14:58.361Z,11.20
2022-12-25T11:16:26.675Z,11.90
2022-12-25T11:17:49.662Z,13.43
2022-12-25T11:19:29.386Z,11.90
2022-12-25T11:21:15.717Z,19.63
2022-12-25T11:22:37.876Z,11.80
2022-12-25T11:24:01.198Z,12.50
2022-12-25T11:25:26.392Z,11.20
2022-12-25T11:26:54.948Z,14.90
2022-12-25T11:28:17.039Z,18.63
2022-12-25T11:29:49.044Z,14.50
2022-12-25T11:31:14.241Z,12.20
2022-12-25T11:32:46.666Z,13.43
2022-12-25T11:34:28.338Z,13.17
2022-12-25T11:35:54.695Z,13.53
2022-12-25T11:37:35.306Z,13.73
2022-12-25T11:39:01.663Z,14.23
2022-12-25T11:40:35.542Z,15.23
2022-12-25T11:42:10.291Z,13.90
2022-12-25T11:43:48.661Z,14.03
2022-12-25T11:45:15.498Z,18.33
2022-12-25T11:46:45.829Z,11.67
2022-12-25T11:48:17.112Z,13.67
2022-12-25T11:49:50.373Z,13.87
2022-12-25T11:51:16.190Z,18.07
2022-12-25T11:52:42.545Z,16.90
2022-12-25T11:54:17.028Z,14.87
2022-12-25T11:55:43.135Z,10.60
2022-12-25T11:57:06.478Z,16.93
2022-12-25T11:58:35.830Z,21.13
2022-12-25T12:00:06.722Z,15.50
2022-12-25T12:01:39.269Z,15.87
2022-12-25T12:03:09.623Z,14.63
2022-12-25T12:05:03.833Z,14.87
2022-12-25T12:06:43.897Z,21.33
2022-12-25T12:08:06.788Z,14.80
2022-12-25T12:09:54.841Z,16.30
2022-12-25T12:12:30.984Z,19.13
2022-12-25T12:14:22.307Z,17.47
2022-12-25T12:15:47.268Z,13.83
2022-12-25T12:17:14.632Z,14.53
2022-12-25T12:18:36.856Z,15.33
2022-12-25T12:19:58.990Z,22.40
2022-12-25T12:21:26.036Z,15.37
2022-12-25T12:22:50.680Z,15.30
2022-12-25T12:24:19.198Z,20.60
2022-12-25T12:25:43.019Z,18.67
2022-12-25T12:27:20.078Z,18.03
2022-12-25T12:28:46.982Z,18.83
2022-12-25T12:30:29.759Z,16.13
2022-12-25T12:31:53.345Z,17.93
2022-12-25T12:33:20.591Z,23.90
2022-12-25T12:34:48.346Z,21.70
2022-12-25T12:36:14.493Z,15.77
2022-12-25T12:37:38.880Z,21.93
2022-12-25T12:39:01.564Z,16.40
2022-12-25T12:40:40.882Z,20.30
2022-12-25T12:42:11.564Z,17.50
2022-12-25T12:43:36.451Z,19.63
2022-12-25T12:45:15.319Z,17.53
2022-12-25T12:46:38.638Z,17.57
2022-12-25T12:48:01.500Z,20.90
2022-12-25T12:49:26.784Z,20.80
2022-12-25T12:50:48.901Z,21.57
2022-12-25T12:52:24.220Z,22.57
2022-12-25T12:53:46.337Z,19.43
2022-12-25T12:55:13.144Z,26.57
2022-12-25T12:56:35.397Z,20.07
2022-12-25T12:58:03.061Z,22.33
2022-12-25T12:59:26.468Z,23.67
2022-12-25T13:00:56.297Z,23.47
2022-12-25T13:02:48.675Z,24.53
2022-12-25T13:04:29.905Z,24.53
2022-12-25T13:06:14.571Z,25.20
2022-12-25T13:07:49.420Z,23.50
2022-12-25T13:09:29.940Z,26.23
2022-12-25T13:11:05.208Z,24.00
2022-12-25T13:12:27.459Z,22.97
2022-12-25T13:13:52.372Z,22.40
2022-12-25T13:15:14.885Z,21.57
2022-12-25T13:16:40.859Z,25.33
2022-12-25T13:18:13.354Z,26.43
2022-12-25T13:19:36.977Z,29.53
2022-12-25T13:21:03.867Z,23.87
2022-12-25T13:22:36.727Z,25.07
2022-12-25T13:24:01.355Z,26.13
2022-12-25T13:25:24.541Z,26.53
2022-12-25T13:26:46.698Z,21.63
2022-12-25T13:28:14.775Z,21.83
2022-12-25T13:29:39.103Z,34.57
2022-12-25T13:31:07.425Z,25.30
2022-12-25T13:32:33.694Z,23.50
2022-12-25T13:34:23.095Z,22.87
2022-12-25T13:35:46.097Z,22.10
2022-12-25T13:37:15.609Z,24.97
2022-12-25T13:38:42.592Z,21.47
2022-12-25T13:40:08.299Z,29.07
2022-12-25T13:42:04.198Z,25.70
2022-12-25T13:43:26.712Z,28.63
2022-12-25T13:45:01.775Z,20.13
2022-12-25T13:46:27.200Z,18.87
2022-12-25T13:47:55.202Z,25.63
2022-12-25T13:49:24.464Z,24.17
2022-12-25T13:50:56.738Z,20.23
2022-12-25T13:52:27.288Z,21.60
2022-12-25T13:53:52.032Z,19.50
2022-12-25T13:55:21.464Z,27.90
2022-12-25T13:56:51.688Z,23.23
2022-12-25T13:58:23.994Z,20.80
2022-12-25T13:59:46.145Z,23.23
2022-12-25T14:01:11.738Z,25.53
2022-12-25T14:02:38.203Z,21.20
2022-12-25T14:04:00.704Z,21.90
2022-12-25T14:05:42.087Z,19.83
2022-12-25T14:07:10.408Z,21.80
2022-12-25T14:08:35.341Z,24.10
2022-12-25T14:10:01.581Z,26.03
2022-12-25T14:11:26.263Z,22.73
2022-12-25T14:12:50.859Z,17.07
2022-12-25T14:14:25.674Z,21.30
2022-12-25T14:15:48.855Z,23.87
2022-12-25T14:17:11.937Z,26.00
2022-12-25T14:18:35.320Z,19.23
2022-12-25T14:20:04.039Z,21.63
2022-12-25T14:21:45.009Z,19.00
2022-12-25T14:23:07.716Z,21.90
2022-12-25T14:24:31.602Z,23.13
2022-12-25T14:25:53.843Z,21.13
2022-12-25T14:27:30.255Z,24.33
2022-12-25T14:28:56.950Z,19.60
2022-12-25T14:30:19.669Z,24.57
2022-12-25T14:31:42.416Z,22.30
2022-12-25T14:33:04.596Z,19.90
2022-12-25T14:34:29.300Z,25.70
2022-12-25T14:35:52.145Z,18.17
2022-12-25T14:37:25.410Z,19.57
2022-12-25T14:38:59.654Z,23.93
2022-12-25T14:40:35.945Z,18.07
2022-12-25T14:41:58.421Z,24.30
2022-12-25T14:43:24.973Z,22.20
2022-12-25T14:44:56.536Z,23.13
2022-12-25T14:46:27.014Z,24.50
2022-12-25T14:47:57.251Z,25.27
2022-12-25T14:49:25.865Z,27.50
2022-12-25T14:51:03.601Z,26.70
2022-12-25T14:52:30.522Z,28.40
2022-12-25T14:53:56.279Z,26.93
2022-12-25T14:55:21.478Z,29.20
2022-12-25T14:56:48.326Z,24.33
2022-12-25T14:58:26.653Z,27.63
2022-12-25T14:59:59.453Z,29.40
2022-12-25T15:01:27.289Z,29.87
2022-12-25T15:02:51.453Z,29.00
2022-12-25T15:04:17.084Z,30.93
2022-12-25T15:05:39.981Z,27.53
2022-12-25T15:07:09.565Z,27.80
2022-12-25T15:08:34.532Z,26.30
2022-12-25T15:10:25.561Z,28.13
2022-12-25T15:11:39.066Z,32.93
2022-12-25T15:13:01.245Z,33.80
2022-12-25T15:14:24.727Z,30.83
2022-12-25T15:16:05.846Z,30.50
2022-12-25T15:17:29.685Z,20.00
2022-12-25T15:18:52.496Z,23.23
2022-12-25T15:20:14.632Z,26.47
2022-12-25T15:21:37.797Z,23.27
2022-12-25T15:23:19.081Z,25.20
2022-12-25T15:24:42.008Z,23.70
2022-12-25T15:26:04.187Z,29.23
2022-12-25T15:27:26.220Z,28.23
2022-12-25T15:28:48.729Z,30.90
2022-12-25T15:30:11.488Z,24.20
2022-12-25T15:31:36.168Z,26.23
2022-12-25T15:32:58.255Z,29.67
2022-12-25T15:34:21.573Z,30.23
2022-12-25T15:35:44.641Z,28.37
2022-12-25T15:37:06.844Z,27.70
2022-12-25T15:38:28.905Z,26.53
2022-12-25T15:39:50.976Z,23.93
2022-12-25T15:41:52.083Z,32.57
2022-12-25T15:43:39.300Z,27.37
2022-12-25T15:44:57.356Z,21.90
2022-12-25T15:46:20.406Z,28.80
2022-12-25T15:47:42.558Z,27.90
2022-12-25T15:49:04.648Z,26.20
2022-12-25T15:50:26.806Z,27.37
2022-12-25T15:51:48.968Z,26.93
2022-12-25T15:53:11.248Z,30.13
2022-12-25T15:54:33.770Z,29.30
2022-12-25T15:55:55.925Z,31.40
2022-12-25T15:57:21.062Z,33.23
2022-12-25T15:58:43.133Z,26.03
2022-12-25T16:00:07.088Z,30.53
2022-12-25T16:01:29.242Z,29.70
2022-12-25T16:02:51.981Z,32.57
2022-12-25T16:04:14.350Z,31.10
2022-12-25T16:05:36.522Z,29.67
2022-12-25T16:06:59.315Z,28.10
2022-12-25T16:08:21.626Z,30.07
2022-12-25T16:09:43.694Z,24.47
2022-12-25T16:11:06.417Z,31.33
2022-12-25T16:12:28.463Z,28.30
2022-12-25T16:13:50.500Z,32.47
2022-12-25T16:15:14.251Z,29.13
2022-12-25T16:16:36.472Z,29.27
2022-12-25T16:17:58.590Z,27.27
2022-12-25T16:19:20.740Z,27.53
2022-12-25T16:20:43.375Z,31.20
2022-12-25T16:22:18.384Z,29.13
2022-12-25T16:23:40.522Z,28.93
2022-12-25T16:25:02.701Z,27.80
2022-12-25T16:26:24.771Z,28.20
2022-12-25T16:27:47.170Z,32.23
2022-12-25T16:29:09.638Z,27.20
2022-12-25T16:30:31.865Z,30.40
2022-12-25T16:31:53.930Z,37.10
2022-12-25T16:33:15.996Z,31.70
2022-12-25T16:34:38.244Z,30.20
2022-12-25T16:36:00.482Z,28.47
2022-12-25T16:37:22.620Z,33.37
2022-12-25T16:38:44.704Z,38.97
2022-12-25T16:40:09.501Z,31.20
2022-12-25T16:41:31.967Z,35.07
2022-12-25T16:42:55.842Z,35.03
2022-12-25T16:44:17.950Z,27.77
2022-12-25T16:45:40.402Z,25.67
2022-12-25T16:47:02.511Z,34.60
2022-12-25T16:48:24.665Z,37.10
2022-12-25T16:49:47.013Z,34.40
2022-12-25T16:51:16.900Z,32.77
2022-12-25T16:52:39.069Z,34.27
2022-12-25T16:54:01.155Z,32.87
2022-12-25T16:55:29.420Z,35.00
2022-12-25T16:56:52.125Z,32.63
2022-12-25T16:58:14.169Z,31.80
2022-12-25T16:59:36.258Z,31.80
2022-12-25T17:01:08.228Z,29.93
2022-12-25T17:02:30.450Z,27.97
2022-12-25T17:03:52.964Z,32.00
2022-12-25T17:05:15.377Z,28.03
2022-12-25T17:06:37.547Z,25.80
2022-12-25T17:07:59.636Z,28.37
2022-12-25T17:09:21.749Z,34.90
2022-12-25T17:10:43.784Z,31.40
2022-12-25T17:12:06.828Z,30.60
2022-12-25T17:13:28.941Z,27.83
2022-12-25T17:14:52.127Z,34.20
2022-12-25T17:16:20.011Z,28.57
2022-12-25T17:17:42.229Z,33.80
2022-12-25T17:19:16.138Z,32.07
2022-12-25T17:20:38.241Z,30.87
2022-12-25T17:22:00.522Z,32.90
2022-12-25T17:23:22.719Z,25.77
2022-12-25T17:24:44.841Z,29.67
2022-12-25T17:26:06.941Z,32.50
2022-12-25T17:27:28.995Z,35.37
2022-12-25T17:28:51.418Z,34.87
2022-12-25T17:30:13.488Z,28.57
2022-12-25T17:31:35.769Z,29.67
2022-12-25T17:32:57.878Z,29.57
2022-12-25T17:34:20.167Z,29.73
2022-12-25T17:35:42.484Z,30.93
2022-12-25T17:37:05.124Z,29.50
2022-12-25T17:38:30.623Z,32.80
2022-12-25T17:39:52.655Z,28.40
2022-12-25T17:41:17.041Z,29.50
2022-12-25T17:42:39.354Z,30.20
2022-12-25T17:44:01.678Z,36.17
2022-12-25T17:45:23.892Z,37.80
2022-12-25T17:46:45.954Z,31.70
2022-12-25T17:48:08.106Z,31.33
2022-12-25T17:49:30.261Z,37.47
2022-12-25T17:50:52.359Z,36.40
2022-12-25T17:52:14.545Z,30.23
2022-12-25T17:53:42.297Z,30.27
2022-12-25T17:55:05.321Z,33.47
2022-12-25T17:56:27.370Z,30.97
2022-12-25T17:57:49.499Z,37.93
2022-12-25T17:59:18.039Z,35.43
2022-12-25T18:00:40.411Z,38.23
2022-12-25T18:02:02.563Z,33.83
2022-12-25T18:03:24.884Z,33.93
2022-12-25T18:04:48.117Z,31.33
2022-12-25T18:06:13.588Z,33.70
2022-12-25T18:07:35.830Z,30.97
2022-12-25T18:08:58.303Z,33.13
2022-12-25T18:10:20.390Z,28.80
2022-12-25T18:13:02.304Z,28.77
2022-12-25T18:14:24.485Z,34.70
2022-12-25T18:15:46.634Z,30.30
2022-12-25T18:17:08.858Z,30.67
2022-12-25T18:18:31.640Z,31.63
2022-12-25T18:19:53.826Z,32.07
2022-12-25T18:21:15.995Z,40.57
2022-12-25T18:22:38.022Z,34.93
2022-12-25T18:24:03.055Z,33.93
2022-12-25T18:25:25.342Z,32.67
2022-12-25T18:26:47.398Z,32.07
2022-12-25T18:28:10.596Z,30.67
2022-12-25T18:29:32.646Z,26.50
2022-12-25T18:30:54.714Z,29.20
2022-12-25T18:32:16.742Z,29.03
2022-12-25T18:33:38.903Z,30.00
2022-12-25T18:35:00.935Z,32.40
2022-12-25T18:36:25.985Z,30.93
2022-12-25T18:37:48.124Z,28.90
2022-12-25T18:39:12.888Z,29.40
2022-12-25T18:40:42.407Z,25.00
2022-12-25T18:42:23.340Z,33.57
2022-12-25T18:43:53.736Z,28.17
2022-12-25T18:45:18.973Z,30.23
2022-12-25T18:46:41.019Z,31.93
2022-12-25T18:48:03.333Z,29.13
2022-12-25T18:49:25.404Z,32.87
2022-12-25T18:51:01.491Z,29.87